sensor_id;sensor_type;location;lat;lon;timestamp;pressure;altitude;pressure_sealevel;temperature;humidity
10484;BME280;5289;42.610;23.362;2022-09-13T00:22:09;59726.34;;;-142.13;100.00
10484;BME280;5289;42.610;23.362;2022-09-13T00:24:35;59726.34;;;-142.13;100.00
10484;BME280;5289;42.610;23.362;2022-09-13T00:27:02;59726.34;;;-142.13;100.00
10484;BME280;5289;42.610;23.362;2022-09-13T00:29:29;59726.34;;;-142.13;100.00
10484;BME280;5289;42.610;23.362;2022-09-13T00:35:18;59726.34;;;-142.13;100.00
10484;BME280;5289;42.610;23.362;2022-09-13T00:37:57;59726.34;;;-142.13;100.00
10484;BME280;5289;42.610;23.362;2022-09-13T00:40:25;59726.34;;;-142.13;100.00
10484;BME280;5289;42.610;23.362;2022-09-13T00:42:52;59726.34;;;-142.13;100.00
10484;BME280;5289;42.610;23.362;2022-09-13T00:45:22;59726.34;;;-142.13;100.00
10484;BME280;5289;42.610;23.362;2022-09-13T00:47:50;59726.34;;;-142.13;100.00
10484;BME280;5289;42.610;23.362;2022-09-13T00:53:10;59726.34;;;-142.13;100.00
10484;BME280;5289;42.610;23.362;2022-09-13T00:55:41;59726.34;;;-142.13;100.00
10484;BME280;5289;42.610;23.362;2022-09-13T00:58:11;59726.34;;;-142.13;100.00
10484;BME280;5289;42.610;23.362;2022-09-13T01:00:40;59726.34;;;-142.13;100.00
10484;BME280;5289;42.610;23.362;2022-09-13T01:03:09;59726.34;;;-142.13;100.00
10484;BME280;5289;42.610;23.362;2022-09-13T01:05:39;59726.34;;;-142.13;100.00
10484;BME280;5289;42.610;23.362;2022-09-13T01:08:12;59726.34;;;-142.13;100.00
10484;BME280;5289;42.610;23.362;2022-09-13T01:10:56;59726.34;;;-142.13;100.00
10484;BME280;5289;42.610;23.362;2022-09-13T01:13:26;59726.34;;;-142.13;100.00
10484;BME280;5289;42.610;23.362;2022-09-13T01:15:54;59726.34;;;-142.13;100.00
10484;BME280;5289;42.610;23.362;2022-09-13T01:18:23;59726.34;;;-142.13;100.00
10484;BME280;5289;42.610;23.362;2022-09-13T01:21:03;59726.34;;;-142.13;100.00
10484;BME280;5289;42.610;23.362;2022-09-13T01:23:54;59726.34;;;-142.13;100.00
10484;BME280;5289;42.610;23.362;2022-09-13T01:26:42;59726.34;;;-142.13;100.00
10484;BME280;5289;42.610;23.362;2022-09-13T01:29:25;59726.34;;;-142.13;100.00
10484;BME280;5289;42.610;23.362;2022-09-13T01:32:01;59726.34;;;-142.13;100.00
10484;BME280;5289;42.610;23.362;2022-09-13T01:34:33;59726.34;;;-142.13;100.00
10484;BME280;5289;42.610;23.362;2022-09-13T01:37:09;59726.34;;;-142.13;100.00
10484;BME280;5289;42.610;23.362;2022-09-13T01:39:48;59726.34;;;-142.13;100.00
10484;BME280;5289;42.610;23.362;2022-09-13T01:42:22;59726.34;;;-142.13;100.00
10484;BME280;5289;42.610;23.362;2022-09-13T01:45:01;59726.34;;;-142.13;100.00
10484;BME280;5289;42.610;23.362;2022-09-13T01:47:36;59726.34;;;-142.13;100.00
10484;BME280;5289;42.610;23.362;2022-09-13T01:50:26;59726.34;;;-142.13;100.00
10484;BME280;5289;42.610;23.362;2022-09-13T01:52:56;59726.34;;;-142.13;100.00
10484;BME280;5289;42.610;23.362;2022-09-13T01:55:29;59726.34;;;-142.13;100.00
10484;BME280;5289;42.610;23.362;2022-09-13T01:58:07;59726.34;;;-142.13;100.00
10484;BME280;5289;42.610;23.362;2022-09-13T02:00:40;59726.34;;;-142.13;100.00
10484;BME280;5289;42.610;23.362;2022-09-13T02:03:13;59726.34;;;-142.13;100.00
10484;BME280;5289;42.610;23.362;2022-09-13T02:05:44;59726.34;;;-142.13;100.00
10484;BME280;5289;42.610;23.362;2022-09-13T02:08:18;59726.34;;;-142.13;100.00
10484;BME280;5289;42.610;23.362;2022-09-13T02:13:40;59726.34;;;-142.13;100.00
10484;BME280;5289;42.610;23.362;2022-09-13T02:16:10;59726.34;;;-142.13;100.00
10484;BME280;5289;42.610;23.362;2022-09-13T02:18:43;59726.34;;;-142.13;100.00
10484;BME280;5289;42.610;23.362;2022-09-13T02:21:14;59726.34;;;-142.13;100.00
10484;BME280;5289;42.610;23.362;2022-09-13T02:23:46;59726.34;;;-142.13;100.00
10484;BME280;5289;42.610;23.362;2022-09-13T02:26:17;59726.34;;;-142.13;100.00
10484;BME280;5289;42.610;23.362;2022-09-13T02:28:47;59726.34;;;-142.13;100.00
10484;BME280;5289;42.610;23.362;2022-09-13T02:31:19;59726.34;;;-142.13;100.00
10484;BME280;5289;42.610;23.362;2022-09-13T02:33:54;59726.34;;;-142.13;100.00
10484;BME280;5289;42.610;23.362;2022-09-13T02:36:24;59726.34;;;-142.13;100.00
10484;BME280;5289;42.610;23.362;2022-09-13T02:38:52;59726.34;;;-142.13;100.00
10484;BME280;5289;42.610;23.362;2022-09-13T02:41:22;59726.34;;;-142.13;100.00
10484;BME280;5289;42.610;23.362;2022-09-13T02:43:52;59726.34;;;-142.13;100.00
10484;BME280;5289;42.610;23.362;2022-09-13T02:46:25;59726.34;;;-142.13;100.00
10484;BME280;5289;42.610;23.362;2022-09-13T02:48:58;59726.34;;;-142.13;100.00
10484;BME280;5289;42.610;23.362;2022-09-13T02:51:29;59726.34;;;-142.13;100.00
10484;BME280;5289;42.610;23.362;2022-09-13T02:54:03;59726.34;;;-142.13;100.00
10484;BME280;5289;42.610;23.362;2022-09-13T02:56:33;59726.34;;;-142.13;100.00
10484;BME280;5289;42.610;23.362;2022-09-13T02:59:04;59726.34;;;-142.13;100.00
10484;BME280;5289;42.610;23.362;2022-09-13T03:01:36;59726.34;;;-142.13;100.00
10484;BME280;5289;42.610;23.362;2022-09-13T03:04:08;59726.34;;;-142.13;100.00
10484;BME280;5289;42.610;23.362;2022-09-13T03:06:36;59726.34;;;-142.13;100.00
10484;BME280;5289;42.610;23.362;2022-09-13T03:09:06;59726.34;;;-142.13;100.00
10484;BME280;5289;42.610;23.362;2022-09-13T03:14:36;59726.34;;;-142.13;100.00
10484;BME280;5289;42.610;23.362;2022-09-13T03:17:13;59726.34;;;-142.13;100.00
10484;BME280;5289;42.610;23.362;2022-09-13T03:19:47;59726.34;;;-142.13;100.00
10484;BME280;5289;42.610;23.362;2022-09-13T03:22:33;59726.34;;;-142.13;100.00
10484;BME280;5289;42.610;23.362;2022-09-13T03:30:37;59726.34;;;-142.13;100.00
10484;BME280;5289;42.610;23.362;2022-09-13T03:33:10;59726.34;;;-142.13;100.00
10484;BME280;5289;42.610;23.362;2022-09-13T03:35:47;59726.34;;;-142.13;100.00
10484;BME280;5289;42.610;23.362;2022-09-13T03:38:34;59726.34;;;-142.13;100.00
10484;BME280;5289;42.610;23.362;2022-09-13T03:41:04;59726.34;;;-142.13;100.00
10484;BME280;5289;42.610;23.362;2022-09-13T03:43:57;59726.34;;;-142.13;100.00
10484;BME280;5289;42.610;23.362;2022-09-13T03:46:26;59726.34;;;-142.13;100.00
10484;BME280;5289;42.610;23.362;2022-09-13T03:48:55;59726.34;;;-142.13;100.00
10484;BME280;5289;42.610;23.362;2022-09-13T03:51:34;59726.34;;;-142.13;100.00
10484;BME280;5289;42.610;23.362;2022-09-13T03:54:05;59726.34;;;-142.13;100.00
10484;BME280;5289;42.610;23.362;2022-09-13T03:56:34;59726.34;;;-142.13;100.00
10484;BME280;5289;42.610;23.362;2022-09-13T03:59:02;59726.34;;;-142.13;100.00
10484;BME280;5289;42.610;23.362;2022-09-13T04:01:29;59726.34;;;-142.13;100.00
10484;BME280;5289;42.610;23.362;2022-09-13T04:03:57;59726.34;;;-142.13;100.00
10484;BME280;5289;42.610;23.362;2022-09-13T04:06:24;59726.34;;;-142.13;100.00
10484;BME280;5289;42.610;23.362;2022-09-13T04:08:53;59726.34;;;-142.13;100.00
10484;BME280;5289;42.610;23.362;2022-09-13T04:11:23;59726.34;;;-142.13;100.00
10484;BME280;5289;42.610;23.362;2022-09-13T04:13:51;59726.34;;;-142.13;100.00
10484;BME280;5289;42.610;23.362;2022-09-13T04:16:18;59726.34;;;-142.13;100.00
10484;BME280;5289;42.610;23.362;2022-09-13T04:18:46;59726.34;;;-142.13;100.00
10484;BME280;5289;42.610;23.362;2022-09-13T04:21:13;59726.34;;;-142.13;100.00
10484;BME280;5289;42.610;23.362;2022-09-13T04:23:42;59726.34;;;-142.13;100.00
10484;BME280;5289;42.610;23.362;2022-09-13T04:26:12;59726.34;;;-142.13;100.00
10484;BME280;5289;42.610;23.362;2022-09-13T04:28:42;59726.34;;;-142.13;100.00
10484;BME280;5289;42.610;23.362;2022-09-13T04:33:58;59726.34;;;-142.13;100.00
10484;BME280;5289;42.610;23.362;2022-09-13T04:36:26;59726.34;;;-142.13;100.00
10484;BME280;5289;42.610;23.362;2022-09-13T04:38:56;59726.34;;;-142.13;100.00
10484;BME280;5289;42.610;23.362;2022-09-13T04:41:27;59726.34;;;-142.13;100.00
10484;BME280;5289;42.610;23.362;2022-09-13T04:43:54;59726.34;;;-142.13;100.00
10484;BME280;5289;42.610;23.362;2022-09-13T04:46:23;59726.34;;;-142.13;100.00
10484;BME280;5289;42.610;23.362;2022-09-13T04:48:53;59726.34;;;-142.13;100.00
10484;BME280;5289;42.610;23.362;2022-09-13T04:51:21;59726.34;;;-142.13;100.00
10484;BME280;5289;42.610;23.362;2022-09-13T04:53:50;59726.34;;;-142.13;100.00
10484;BME280;5289;42.610;23.362;2022-09-13T04:56:20;59726.34;;;-142.13;100.00
10484;BME280;5289;42.610;23.362;2022-09-13T04:58:50;59726.34;;;-142.13;100.00
10484;BME280;5289;42.610;23.362;2022-09-13T05:01:19;59726.34;;;-142.13;100.00
10484;BME280;5289;42.610;23.362;2022-09-13T05:03:46;59726.34;;;-142.13;100.00
10484;BME280;5289;42.610;23.362;2022-09-13T05:06:14;59726.34;;;-142.13;100.00
10484;BME280;5289;42.610;23.362;2022-09-13T05:08:43;59726.34;;;-142.13;100.00
10484;BME280;5289;42.610;23.362;2022-09-13T05:11:15;59726.34;;;-142.13;100.00
10484;BME280;5289;42.610;23.362;2022-09-13T05:13:47;59726.34;;;-142.13;100.00
10484;BME280;5289;42.610;23.362;2022-09-13T05:16:19;59726.34;;;-142.13;100.00
10484;BME280;5289;42.610;23.362;2022-09-13T05:18:47;59726.34;;;-142.13;100.00
10484;BME280;5289;42.610;23.362;2022-09-13T05:21:14;59726.34;;;-142.13;100.00
10484;BME280;5289;42.610;23.362;2022-09-13T05:23:42;59726.34;;;-142.13;100.00
10484;BME280;5289;42.610;23.362;2022-09-13T05:26:09;59726.34;;;-142.13;100.00
10484;BME280;5289;42.610;23.362;2022-09-13T05:28:35;59726.34;;;-142.13;100.00
10484;BME280;5289;42.610;23.362;2022-09-13T05:33:53;59726.34;;;-142.13;100.00
10484;BME280;5289;42.610;23.362;2022-09-13T05:36:21;59726.34;;;-142.13;100.00
10484;BME280;5289;42.610;23.362;2022-09-13T05:38:48;59726.34;;;-142.13;100.00
10484;BME280;5289;42.610;23.362;2022-09-13T05:41:19;59726.34;;;-142.13;100.00
10484;BME280;5289;42.610;23.362;2022-09-13T05:43:47;59726.34;;;-142.13;100.00
10484;BME280;5289;42.610;23.362;2022-09-13T05:46:17;59726.34;;;-142.13;100.00
10484;BME280;5289;42.610;23.362;2022-09-13T05:48:48;59726.34;;;-142.13;100.00
10484;BME280;5289;42.610;23.362;2022-09-13T05:51:17;59726.34;;;-142.13;100.00
10484;BME280;5289;42.610;23.362;2022-09-13T05:53:45;59726.34;;;-142.13;100.00
10484;BME280;5289;42.610;23.362;2022-09-13T05:56:12;59726.34;;;-142.13;100.00
10484;BME280;5289;42.610;23.362;2022-09-13T05:58:42;59726.34;;;-142.13;100.00
10484;BME280;5289;42.610;23.362;2022-09-13T06:01:11;59726.34;;;-142.13;100.00
10484;BME280;5289;42.610;23.362;2022-09-13T06:03:46;59726.34;;;-142.13;100.00
10484;BME280;5289;42.610;23.362;2022-09-13T06:06:15;59726.34;;;-142.13;100.00
10484;BME280;5289;42.610;23.362;2022-09-13T06:08:51;59726.34;;;-142.13;100.00
10484;BME280;5289;42.610;23.362;2022-09-13T06:11:24;59726.34;;;-142.13;100.00
10484;BME280;5289;42.610;23.362;2022-09-13T06:13:52;59726.34;;;-142.13;100.00
10484;BME280;5289;42.610;23.362;2022-09-13T06:16:19;59726.34;;;-142.13;100.00
10484;BME280;5289;42.610;23.362;2022-09-13T06:18:48;59726.34;;;-142.13;100.00
10484;BME280;5289;42.610;23.362;2022-09-13T06:21:17;59726.34;;;-142.13;100.00
10484;BME280;5289;42.610;23.362;2022-09-13T06:24:02;59726.34;;;-142.13;100.00
10484;BME280;5289;42.610;23.362;2022-09-13T06:26:30;59726.34;;;-142.13;100.00
10484;BME280;5289;42.610;23.362;2022-09-13T06:28:58;59726.34;;;-142.13;100.00
10484;BME280;5289;42.610;23.362;2022-09-13T06:31:30;59726.34;;;-142.13;100.00
10484;BME280;5289;42.610;23.362;2022-09-13T06:34:00;59726.34;;;-142.13;100.00
10484;BME280;5289;42.610;23.362;2022-09-13T06:36:35;59726.34;;;-142.13;100.00
10484;BME280;5289;42.610;23.362;2022-09-13T06:39:17;59726.34;;;-142.13;100.00
10484;BME280;5289;42.610;23.362;2022-09-13T06:41:45;59726.34;;;-142.13;100.00
10484;BME280;5289;42.610;23.362;2022-09-13T06:47:22;59726.34;;;-142.13;100.00
10484;BME280;5289;42.610;23.362;2022-09-13T06:53:15;59726.34;;;-142.13;100.00
10484;BME280;5289;42.610;23.362;2022-09-13T06:55:53;59726.34;;;-142.13;100.00
10484;BME280;5289;42.610;23.362;2022-09-13T06:58:25;59726.34;;;-142.13;100.00
10484;BME280;5289;42.610;23.362;2022-09-13T07:03:39;59726.34;;;-142.13;100.00
10484;BME280;5289;42.610;23.362;2022-09-13T07:06:10;59726.34;;;-142.13;100.00
10484;BME280;5289;42.610;23.362;2022-09-13T07:08:42;59726.34;;;-142.13;100.00
10484;BME280;5289;42.610;23.362;2022-09-13T07:11:13;59726.34;;;-142.13;100.00
10484;BME280;5289;42.610;23.362;2022-09-13T07:13:46;59726.34;;;-142.13;100.00
10484;BME280;5289;42.610;23.362;2022-09-13T07:16:15;59726.34;;;-142.13;100.00
10484;BME280;5289;42.610;23.362;2022-09-13T07:18:44;59726.34;;;-142.13;100.00
10484;BME280;5289;42.610;23.362;2022-09-13T07:21:13;59726.34;;;-142.13;100.00
10484;BME280;5289;42.610;23.362;2022-09-13T07:23:46;59726.34;;;-142.13;100.00
10484;BME280;5289;42.610;23.362;2022-09-13T07:26:28;59726.34;;;-142.13;100.00
10484;BME280;5289;42.610;23.362;2022-09-13T07:38:33;59726.34;;;-142.13;100.00
10484;BME280;5289;42.610;23.362;2022-09-13T07:41:23;59726.34;;;-142.13;100.00
10484;BME280;5289;42.610;23.362;2022-09-13T07:43:54;59726.34;;;-142.13;100.00
10484;BME280;5289;42.610;23.362;2022-09-13T07:46:22;59726.34;;;-142.13;100.00
10484;BME280;5289;42.610;23.362;2022-09-13T07:48:51;59726.34;;;-142.13;100.00
10484;BME280;5289;42.610;23.362;2022-09-13T08:01:11;59726.34;;;-142.13;100.00
10484;BME280;5289;42.610;23.362;2022-09-13T08:03:41;59726.34;;;-142.13;100.00
10484;BME280;5289;42.610;23.362;2022-09-13T08:25:40;59726.34;;;-142.13;100.00
10484;BME280;5289;42.610;23.362;2022-09-13T08:28:28;59726.34;;;-142.13;100.00
10484;BME280;5289;42.610;23.362;2022-09-13T08:37:22;59726.34;;;-142.13;100.00
10484;BME280;5289;42.610;23.362;2022-09-13T08:39:54;59726.34;;;-142.13;100.00
10484;BME280;5289;42.610;23.362;2022-09-13T08:55:13;93019.50;;;30.25;100.00
10484;BME280;5289;42.610;23.362;2022-09-13T08:57:46;93034.38;;;30.10;100.00
10484;BME280;5289;42.610;23.362;2022-09-13T09:00:16;93035.88;;;29.48;100.00
10484;BME280;5289;42.610;23.362;2022-09-13T09:02:47;93030.75;;;29.72;100.00
10484;BME280;5289;42.610;23.362;2022-09-13T09:05:18;92998.25;;;29.46;100.00
10484;BME280;5289;42.610;23.362;2022-09-13T09:07:46;92982.25;;;28.28;100.00
10484;BME280;5289;42.610;23.362;2022-09-13T09:10:18;92957.91;;;26.99;100.00
10484;BME280;5289;42.610;23.362;2022-09-13T09:12:46;92962.81;;;25.28;100.00
10484;BME280;5289;42.610;23.362;2022-09-13T09:15:16;92880.09;;;23.65;100.00
10484;BME280;5289;42.610;23.362;2022-09-13T09:17:46;92886.31;;;23.03;100.00
10484;BME280;5289;42.610;23.362;2022-09-13T09:20:27;92864.78;;;22.45;100.00
10484;BME280;5289;42.610;23.362;2022-09-13T09:22:57;92851.09;;;21.38;100.00
10484;BME280;5289;42.610;23.362;2022-09-13T09:25:27;92735.03;;;22.22;100.00
10484;BME280;5289;42.610;23.362;2022-09-13T09:27:53;92841.31;;;21.83;100.00
10484;BME280;5289;42.610;23.362;2022-09-13T09:30:20;92708.31;;;22.46;100.00
10484;BME280;5289;42.610;23.362;2022-09-13T09:32:49;92841.66;;;22.54;100.00
10484;BME280;5289;42.610;23.362;2022-09-13T09:35:20;92842.13;;;22.33;100.00
10484;BME280;5289;42.610;23.362;2022-09-13T09:38:04;92834.41;;;22.55;100.00
10484;BME280;5289;42.610;23.362;2022-09-13T09:40:37;92803.97;;;22.46;100.00
10484;BME280;5289;42.610;23.362;2022-09-13T09:43:09;92740.03;;;22.34;100.00
10484;BME280;5289;42.610;23.362;2022-09-13T09:45:38;92800.59;;;22.30;100.00
10484;BME280;5289;42.610;23.362;2022-09-13T09:48:07;92844.75;;;21.24;100.00
10484;BME280;5289;42.610;23.362;2022-09-13T09:50:38;92755.53;;;20.85;100.00
10484;BME280;5289;42.610;23.362;2022-09-13T09:53:09;92753.47;;;20.41;100.00
10484;BME280;5289;42.610;23.362;2022-09-13T09:55:41;92746.44;;;20.91;100.00
10484;BME280;5289;42.610;23.362;2022-09-13T09:58:11;92702.44;;;21.76;100.00
10484;BME280;5289;42.610;23.362;2022-09-13T10:00:49;92833.34;;;22.22;100.00
10484;BME280;5289;42.610;23.362;2022-09-13T10:03:17;92719.69;;;22.91;100.00
10484;BME280;5289;42.610;23.362;2022-09-13T10:05:44;92794.59;;;23.30;100.00
10484;BME280;5289;42.610;23.362;2022-09-13T10:08:23;92729.72;;;23.70;100.00
10484;BME280;5289;42.610;23.362;2022-09-13T10:10:53;92848.56;;;23.76;100.00
10484;BME280;5289;42.610;23.362;2022-09-13T10:13:20;92884.75;;;23.26;100.00
10484;BME280;5289;42.610;23.362;2022-09-13T10:15:51;92815.06;;;23.49;100.00
10484;BME280;5289;42.610;23.362;2022-09-13T10:18:19;92812.63;;;23.24;100.00
10484;BME280;5289;42.610;23.362;2022-09-13T10:20:58;92826.63;;;22.92;100.00
10484;BME280;5289;42.610;23.362;2022-09-13T10:23:25;92724.75;;;22.92;100.00
10484;BME280;5289;42.610;23.362;2022-09-13T10:26:01;92749.50;;;22.84;100.00
10484;BME280;5289;42.610;23.362;2022-09-13T10:28:28;92717.69;;;22.49;100.00
10484;BME280;5289;42.610;23.362;2022-09-13T10:30:56;92773.53;;;22.32;100.00
10484;BME280;5289;42.610;23.362;2022-09-13T10:33:25;92809.28;;;22.51;100.00
10484;BME280;5289;42.610;23.362;2022-09-13T10:35:52;92793.88;;;22.38;100.00
10484;BME280;5289;42.610;23.362;2022-09-13T10:38:20;92745.56;;;21.70;100.00
10484;BME280;5289;42.610;23.362;2022-09-13T10:40:49;92765.75;;;21.52;100.00
10484;BME280;5289;42.610;23.362;2022-09-13T10:43:17;92736.59;;;21.51;100.00
10484;BME280;5289;42.610;23.362;2022-09-13T10:45:44;92811.09;;;21.03;100.00
10484;BME280;5289;42.610;23.362;2022-09-13T10:48:15;92749.13;;;20.81;100.00
10484;BME280;5289;42.610;23.362;2022-09-13T10:50:43;92724.47;;;21.09;100.00
10484;BME280;5289;42.610;23.362;2022-09-13T10:53:37;92629.03;;;21.15;100.00
10484;BME280;5289;42.610;23.362;2022-09-13T10:56:04;92765.06;;;21.21;100.00
10484;BME280;5289;42.610;23.362;2022-09-13T10:58:33;92690.13;;;21.36;100.00
10484;BME280;5289;42.610;23.362;2022-09-13T11:03:44;92642.78;;;22.10;100.00
10484;BME280;5289;42.610;23.362;2022-09-13T11:06:16;92760.91;;;22.03;100.00
10484;BME280;5289;42.610;23.362;2022-09-13T11:08:47;92777.38;;;22.20;100.00
10484;BME280;5289;42.610;23.362;2022-09-13T11:11:17;92727.03;;;22.51;100.00
10484;BME280;5289;42.610;23.362;2022-09-13T11:13:56;92739.41;;;22.13;100.00
10484;BME280;5289;42.610;23.362;2022-09-13T11:16:33;92726.41;;;21.92;100.00
10484;BME280;5289;42.610;23.362;2022-09-13T11:19:06;92707.94;;;22.00;100.00
10484;BME280;5289;42.610;23.362;2022-09-13T11:21:40;92781.81;;;21.47;100.00
10484;BME280;5289;42.610;23.362;2022-09-13T11:26:54;92750.72;;;20.92;100.00
10484;BME280;5289;42.610;23.362;2022-09-13T11:29:39;92530.81;;;21.30;100.00
10484;BME280;5289;42.610;23.362;2022-09-13T11:32:14;92725.00;;;21.01;100.00
10484;BME280;5289;42.610;23.362;2022-09-13T11:34:47;92650.13;;;21.16;100.00
10484;BME280;5289;42.610;23.362;2022-09-13T11:37:28;92697.38;;;21.31;100.00
10484;BME280;5289;42.610;23.362;2022-09-13T11:39:59;92734.06;;;21.25;100.00
10484;BME280;5289;42.610;23.362;2022-09-13T11:42:32;92724.91;;;21.36;100.00
10484;BME280;5289;42.610;23.362;2022-09-13T11:48:06;92738.94;;;20.98;100.00
10484;BME280;5289;42.610;23.362;2022-09-13T11:50:41;92764.06;;;20.92;100.00
10484;BME280;5289;42.610;23.362;2022-09-13T11:53:15;92681.91;;;21.23;100.00
10484;BME280;5289;42.610;23.362;2022-09-13T11:55:48;92715.34;;;21.25;100.00
10484;BME280;5289;42.610;23.362;2022-09-13T11:58:17;92759.00;;;20.90;100.00
10484;BME280;5289;42.610;23.362;2022-09-13T12:00:46;92715.97;;;20.92;100.00
10484;BME280;5289;42.610;23.362;2022-09-13T12:03:17;92739.47;;;20.90;100.00
10484;BME280;5289;42.610;23.362;2022-09-13T12:05:46;92675.78;;;21.12;100.00
10484;BME280;5289;42.610;23.362;2022-09-13T12:08:17;92750.16;;;20.90;100.00
10484;BME280;5289;42.610;23.362;2022-09-13T12:10:45;92706.06;;;20.97;100.00
10484;BME280;5289;42.610;23.362;2022-09-13T12:13:14;92673.09;;;21.12;100.00
10484;BME280;5289;42.610;23.362;2022-09-13T12:15:43;92667.47;;;21.24;100.00
10484;BME280;5289;42.610;23.362;2022-09-13T12:18:12;92750.44;;;20.98;100.00
10484;BME280;5289;42.610;23.362;2022-09-13T12:20:42;92751.50;;;20.92;100.00
10484;BME280;5289;42.610;23.362;2022-09-13T12:23:11;92722.63;;;21.05;100.00
10484;BME280;5289;42.610;23.362;2022-09-13T12:25:41;92670.69;;;21.26;100.00
10484;BME280;5289;42.610;23.362;2022-09-13T12:28:12;92755.75;;;21.09;100.00
10484;BME280;5289;42.610;23.362;2022-09-13T12:30:44;92672.78;;;21.29;100.00
10484;BME280;5289;42.610;23.362;2022-09-13T12:33:12;92721.81;;;21.14;100.00
10484;BME280;5289;42.610;23.362;2022-09-13T12:35:43;92727.81;;;20.66;100.00
10484;BME280;5289;42.610;23.362;2022-09-13T12:38:16;92702.69;;;20.72;100.00
10484;BME280;5289;42.610;23.362;2022-09-13T12:40:50;92673.81;;;20.74;100.00
10484;BME280;5289;42.610;23.362;2022-09-13T12:43:29;92696.19;;;20.93;100.00
10484;BME280;5289;42.610;23.362;2022-09-13T12:48:46;92661.81;;;21.30;100.00
10484;BME280;5289;42.610;23.362;2022-09-13T12:51:22;92736.78;;;21.15;100.00
10484;BME280;5289;42.610;23.362;2022-09-13T12:56:57;92661.31;;;21.23;100.00
10484;BME280;5289;42.610;23.362;2022-09-13T12:59:31;92674.75;;;21.08;100.00
10484;BME280;5289;42.610;23.362;2022-09-13T13:02:18;92707.47;;;20.75;100.00
10484;BME280;5289;42.610;23.362;2022-09-13T13:04:47;92675.41;;;20.75;100.00
10484;BME280;5289;42.610;23.362;2022-09-13T13:07:19;92685.81;;;20.81;100.00
10484;BME280;5289;42.610;23.362;2022-09-13T13:09:47;92727.53;;;20.62;100.00
10484;BME280;5289;42.610;23.362;2022-09-13T13:12:24;92696.84;;;20.54;100.00
10484;BME280;5289;42.610;23.362;2022-09-13T13:14:51;92686.69;;;20.51;100.00
10484;BME280;5289;42.610;23.362;2022-09-13T13:17:35;92683.53;;;20.44;100.00
10484;BME280;5289;42.610;23.362;2022-09-13T13:22:50;92631.41;;;20.52;100.00
10484;BME280;5289;42.610;23.362;2022-09-13T13:25:30;92674.69;;;20.54;100.00
10484;BME280;5289;42.610;23.362;2022-09-13T13:27:57;92692.44;;;20.89;100.00
10484;BME280;5289;42.610;23.362;2022-09-13T13:30:40;92615.91;;;21.18;100.00
10484;BME280;5289;42.610;23.362;2022-09-13T13:35:51;92706.56;;;21.05;100.00
10484;BME280;5289;42.610;23.362;2022-09-13T13:38:39;92660.47;;;20.64;100.00
10484;BME280;5289;42.610;23.362;2022-09-13T13:41:07;92648.78;;;20.54;100.00
10484;BME280;5289;42.610;23.362;2022-09-13T13:43:53;92653.38;;;20.34;100.00
10484;BME280;5289;42.610;23.362;2022-09-13T13:46:24;92622.34;;;20.48;100.00
10484;BME280;5289;42.610;23.362;2022-09-13T13:48:51;92679.19;;;20.64;100.00
10484;BME280;5289;42.610;23.362;2022-09-13T13:51:19;92698.69;;;20.59;100.00
10484;BME280;5289;42.610;23.362;2022-09-13T13:53:49;92685.59;;;20.57;100.00
10484;BME280;5289;42.610;23.362;2022-09-13T13:56:18;92702.22;;;20.39;100.00
10484;BME280;5289;42.610;23.362;2022-09-13T13:58:46;92644.03;;;20.06;100.00
10484;BME280;5289;42.610;23.362;2022-09-13T14:01:16;92586.44;;;19.90;100.00
10484;BME280;5289;42.610;23.362;2022-09-13T14:03:49;92522.34;;;20.05;100.00
10484;BME280;5289;42.610;23.362;2022-09-13T14:06:18;92495.72;;;19.95;100.00
10484;BME280;5289;42.610;23.362;2022-09-13T14:08:56;92511.28;;;19.52;100.00
10484;BME280;5289;42.610;23.362;2022-09-13T14:11:31;92530.47;;;19.29;100.00
10484;BME280;5289;42.610;23.362;2022-09-13T14:14:07;92437.16;;;19.44;100.00
10484;BME280;5289;42.610;23.362;2022-09-13T14:16:45;92469.97;;;19.55;100.00
10484;BME280;5289;42.610;23.362;2022-09-13T14:19:18;92495.84;;;19.49;100.00
10484;BME280;5289;42.610;23.362;2022-09-13T14:24:33;92519.03;;;19.54;100.00
10484;BME280;5289;42.610;23.362;2022-09-13T14:27:01;92550.75;;;19.70;100.00
10484;BME280;5289;42.610;23.362;2022-09-13T14:29:28;92551.50;;;19.86;100.00
10484;BME280;5289;42.610;23.362;2022-09-13T14:32:00;92587.25;;;19.75;100.00
10484;BME280;5289;42.610;23.362;2022-09-13T14:34:28;92507.22;;;19.85;100.00
10484;BME280;5289;42.610;23.362;2022-09-13T14:36:56;92509.91;;;19.75;100.00
10484;BME280;5289;42.610;23.362;2022-09-13T14:39:23;92604.59;;;19.67;100.00
10484;BME280;5289;42.610;23.362;2022-09-13T14:41:57;92637.13;;;19.39;100.00
10484;BME280;5289;42.610;23.362;2022-09-13T14:44:25;92520.34;;;19.41;100.00
10484;BME280;5289;42.610;23.362;2022-09-13T14:46:53;92506.19;;;19.41;100.00
10484;BME280;5289;42.610;23.362;2022-09-13T14:49:22;92400.13;;;19.48;100.00
10484;BME280;5289;42.610;23.362;2022-09-13T14:51:50;92450.75;;;19.38;100.00
10484;BME280;5289;42.610;23.362;2022-09-13T14:54:18;92223.38;;;19.37;100.00
10484;BME280;5289;42.610;23.362;2022-09-13T14:56:48;92323.19;;;19.06;100.00
10484;BME280;5289;42.610;23.362;2022-09-13T14:59:22;92232.78;;;19.19;100.00
10484;BME280;5289;42.610;23.362;2022-09-13T15:01:51;92431.88;;;19.09;100.00
10484;BME280;5289;42.610;23.362;2022-09-13T15:04:18;92432.44;;;19.01;100.00
10484;BME280;5289;42.610;23.362;2022-09-13T15:06:46;92307.50;;;18.89;100.00
10484;BME280;5289;42.610;23.362;2022-09-13T15:09:13;92209.75;;;18.89;100.00
10484;BME280;5289;42.610;23.362;2022-09-13T15:11:41;92073.97;;;18.79;100.00
10484;BME280;5289;42.610;23.362;2022-09-13T15:14:25;92112.88;;;18.70;100.00
10484;BME280;5289;42.610;23.362;2022-09-13T15:16:53;92025.66;;;18.57;100.00